TAF Text Data
IDs:
Format:
Raw Decoded Include METAR

Data at: 0855 UTC 27 Feb 2020

KCSV 270546Z 2706/2806 31013G23KT P6SM VCSH FEW007 OVC014
  TEMPO 2706/2710 1 1/2SM -SN BR BKN007 OVC014
  FM271600 28008G16KT P6SM FEW250
  FM280000 25004KT P6SM SCT100